createdAt,value
2018-07-01T00:00:09.209Z,101932.77
2018-07-01T00:03:25.283Z,101924.75
2018-07-01T00:10:39.865Z,101922.33
2018-07-01T00:14:06.654Z,101926.12
2018-07-01T00:17:21.483Z,101925.69
2018-07-01T00:20:26.113Z,101926.94
2018-07-01T00:23:30.740Z,101930.36
2018-07-01T00:26:35.368Z,101920.20
2018-07-01T00:29:40.044Z,101925.76
2018-07-01T00:32:47.952Z,101934.16
2018-07-01T00:35:54.280Z,101923.71
2018-07-01T00:39:10.734Z,101932.34
2018-07-01T00:42:19.889Z,101931.52
2018-07-01T00:45:46.016Z,101929.16
2018-07-01T00:48:55.164Z,101921.08
2018-07-01T00:52:15.630Z,101922.81
2018-07-01T00:55:26.889Z,101921.08
2018-07-01T00:58:45.552Z,101922.76
2018-07-01T01:02:03.228Z,101919.65
2018-07-01T01:05:18.014Z,101919.02
2018-07-01T01:08:39.235Z,101913.86
2018-07-01T01:11:51.980Z,101921.69
2018-07-01T01:18:45.937Z,101918.77
2018-07-01T01:22:06.179Z,101924.29
2018-07-01T01:25:41.644Z,101930.62
2018-07-01T01:28:50.168Z,101929.73
2018-07-01T01:32:01.433Z,101926.14
2018-07-01T01:35:18.611Z,101931.28
2018-07-01T01:38:49.877Z,101926.19
2018-07-01T01:45:49.413Z,101934.77
2018-07-01T01:49:18.941Z,101936.84
2018-07-01T01:53:35.699Z,101941.16
2018-07-01T01:56:55.604Z,101936.28
2018-07-01T02:00:17.890Z,101940.25
2018-07-01T02:03:36.044Z,101941.95
2018-07-01T02:07:07.819Z,101945.05
2018-07-01T02:10:28.792Z,101949.84
2018-07-01T02:16:51.369Z,101950.07
2018-07-01T02:19:56.002Z,101949.17
2018-07-01T02:23:04.664Z,101950.92
2018-07-01T02:26:09.229Z,101953.91
2018-07-01T02:29:13.852Z,101952.02
2018-07-01T02:32:18.329Z,101954.46
2018-07-01T02:35:22.896Z,101952.02
2018-07-01T02:38:27.486Z,101957.81
2018-07-01T02:41:32.060Z,101962.39
2018-07-01T02:44:37.461Z,101957.09
2018-07-01T02:47:41.988Z,101953.23
2018-07-01T02:50:46.497Z,101954.41
2018-07-01T02:53:51.025Z,101953.05
2018-07-01T02:56:55.546Z,101956.50
2018-07-01T03:00:00.077Z,101952.96
2018-07-01T03:03:04.616Z,101962.45
2018-07-01T03:06:09.116Z,101963.81
2018-07-01T03:09:14.495Z,101966.59
2018-07-01T03:12:19.116Z,101973.78
2018-07-01T03:15:23.733Z,101977.81
2018-07-01T03:18:28.342Z,101978.55
2018-07-01T03:21:33.102Z,101975.94
2018-07-01T03:24:37.829Z,101976.72
2018-07-01T03:27:42.517Z,101979.02
2018-07-01T03:30:47.281Z,101982.98
2018-07-01T03:33:52.062Z,101978.05
2018-07-01T03:36:57.073Z,101982.01
2018-07-01T03:40:01.647Z,101985.31
2018-07-01T03:43:06.424Z,101979.00
2018-07-01T03:46:11.005Z,101981.02
2018-07-01T03:49:15.772Z,101984.33
2018-07-01T03:52:20.335Z,101987.39
2018-07-01T03:55:24.858Z,101985.73
2018-07-01T03:58:29.407Z,101991.60
2018-07-01T04:01:33.952Z,101992.22
2018-07-01T04:04:38.578Z,101998.86
2018-07-01T04:07:43.101Z,102004.15
2018-07-01T04:10:47.593Z,102004.05
2018-07-01T04:13:52.320Z,102009.37
2018-07-01T04:16:56.743Z,102017.14
2018-07-01T04:20:01.279Z,102022.87
2018-07-01T04:23:05.803Z,102023.78
2018-07-01T04:26:10.408Z,102019.87
2018-07-01T04:29:14.965Z,102015.50
2018-07-01T04:32:19.493Z,102024.30
2018-07-01T04:35:24.000Z,102025.44
2018-07-01T04:38:28.530Z,102016.22
2018-07-01T04:41:33.044Z,102023.75
2018-07-01T04:44:37.652Z,102030.83
2018-07-01T04:47:42.119Z,102021.73
2018-07-01T04:50:46.633Z,102024.98
2018-07-01T04:53:51.266Z,102028.58
2018-07-01T04:56:55.808Z,102032.30
2018-07-01T05:00:00.278Z,102025.49
2018-07-01T05:03:04.869Z,102037.09
2018-07-01T05:06:09.453Z,102031.34
2018-07-01T05:09:14.724Z,102035.53
2018-07-01T05:12:19.195Z,102034.42
2018-07-01T05:15:23.788Z,102034.61
2018-07-01T05:18:28.353Z,102043.19
2018-07-01T05:21:32.888Z,102043.84
2018-07-01T05:24:37.403Z,102037.95
2018-07-01T05:27:41.959Z,102040.34
2018-07-01T05:30:46.617Z,102035.66
2018-07-01T05:33:51.169Z,102038.41
2018-07-01T05:36:55.803Z,102031.94
2018-07-01T05:40:00.313Z,102032.09
2018-07-01T05:43:05.051Z,102033.52
2018-07-01T05:46:09.590Z,102035.34
2018-07-01T05:49:14.173Z,102038.04
2018-07-01T05:52:18.628Z,102041.72
2018-07-01T05:55:23.158Z,102041.83
2018-07-01T05:58:27.715Z,102039.34
2018-07-01T06:01:33.280Z,102039.94
2018-07-01T06:04:37.975Z,102046.70
2018-07-01T06:07:42.499Z,102043.28
2018-07-01T06:10:47.050Z,102049.09
2018-07-01T06:13:51.641Z,102052.80
2018-07-01T06:16:56.378Z,102050.67
2018-07-01T06:20:00.895Z,102053.84
2018-07-01T06:23:05.856Z,102052.58
2018-07-01T06:26:10.593Z,102052.70
2018-07-01T06:29:15.106Z,102063.34
2018-07-01T06:32:19.584Z,102064.27
2018-07-01T06:35:24.261Z,102059.52
2018-07-01T06:38:28.946Z,102062.26
2018-07-01T06:41:33.470Z,102062.31
2018-07-01T06:44:38.009Z,102063.28
2018-07-01T06:47:42.539Z,102069.05
2018-07-01T06:50:47.116Z,102063.81
2018-07-01T06:53:51.834Z,102075.31
2018-07-01T06:56:56.612Z,102065.73
2018-07-01T07:00:01.121Z,102070.16
2018-07-01T07:03:05.861Z,102076.39
2018-07-01T07:06:10.397Z,102074.72
2018-07-01T07:09:15.472Z,102073.42
2018-07-01T07:12:20.061Z,102075.64
2018-07-01T07:15:24.544Z,102079.16
2018-07-01T07:18:29.098Z,102083.11
2018-07-01T07:21:33.637Z,102075.64
2018-07-01T07:24:38.343Z,102087.13
2018-07-01T07:27:42.862Z,102093.73
2018-07-01T07:30:47.419Z,102090.66
2018-07-01T07:33:52.123Z,102082.39
2018-07-01T07:36:56.752Z,102090.34
2018-07-01T07:40:01.344Z,102085.95
2018-07-01T07:43:06.266Z,102084.66
2018-07-01T07:46:10.980Z,102084.65
2018-07-01T07:49:15.816Z,102094.33
2018-07-01T07:52:20.582Z,102086.87
2018-07-01T07:55:25.472Z,102092.58
2018-07-01T07:58:30.244Z,102095.20
2018-07-01T08:01:34.829Z,102091.25
2018-07-01T08:04:39.596Z,102089.50
2018-07-01T08:07:44.220Z,102090.76
2018-07-01T08:10:48.760Z,102090.31
2018-07-01T08:13:53.726Z,102090.31
2018-07-01T08:16:58.617Z,102091.62
2018-07-01T08:20:03.581Z,102095.58
2018-07-01T08:23:08.280Z,102093.38
2018-07-01T08:26:12.832Z,102087.19
2018-07-01T08:29:17.526Z,102084.94
2018-07-01T08:32:22.123Z,102093.70
2018-07-01T08:35:26.754Z,102097.21
2018-07-01T08:38:31.312Z,102090.53
2018-07-01T08:42:49.167Z,102094.08
2018-07-01T08:45:53.982Z,102091.44
2018-07-01T08:48:58.717Z,102086.98
2018-07-01T08:52:03.535Z,102086.52
2018-07-01T08:55:08.106Z,102083.36
2018-07-01T08:58:12.945Z,102085.92
2018-07-01T09:01:17.831Z,102080.61
2018-07-01T09:04:22.596Z,102087.16
2018-07-01T09:07:27.175Z,102086.48
2018-07-01T09:10:31.820Z,102081.59
2018-07-01T09:13:38.824Z,102083.33
2018-07-01T09:16:43.452Z,102081.90
2018-07-01T09:19:48.135Z,102083.13
2018-07-01T09:22:52.705Z,102079.61
2018-07-01T09:25:57.492Z,102077.30
2018-07-01T09:29:02.248Z,102080.97
2018-07-01T09:32:07.002Z,102090.41
2018-07-01T09:35:11.658Z,102082.61
2018-07-01T09:38:16.280Z,102087.02
2018-07-01T09:41:21.168Z,102088.34
2018-07-01T09:44:25.953Z,102080.41
2018-07-01T09:47:30.740Z,102083.03
2018-07-01T09:50:35.442Z,102083.03
2018-07-01T09:53:40.384Z,102087.42
2018-07-01T09:56:44.934Z,102095.68
2018-07-01T09:59:49.504Z,102087.32
2018-07-01T10:02:54.063Z,102093.95
2018-07-01T10:05:58.660Z,102086.50
2018-07-01T10:09:03.437Z,102089.21
2018-07-01T10:12:08.273Z,102090.06
2018-07-01T10:15:13.024Z,102095.26
2018-07-01T10:18:17.488Z,102092.98
2018-07-01T10:21:22.469Z,102092.08
2018-07-01T10:24:27.243Z,102092.94
2018-07-01T10:27:31.989Z,102087.52
2018-07-01T10:30:37.045Z,102092.03
2018-07-01T10:33:41.767Z,102088.52
2018-07-01T10:36:46.409Z,102089.44
2018-07-01T10:39:51.013Z,102083.80
2018-07-01T10:42:55.677Z,102084.31
2018-07-01T10:46:01.152Z,102094.88
2018-07-01T10:49:07.190Z,102090.97
2018-07-01T10:52:11.835Z,102090.04
2018-07-01T10:55:16.761Z,102083.88
2018-07-01T10:58:21.434Z,102080.38
2018-07-01T11:01:26.162Z,102079.04
2018-07-01T11:04:30.789Z,102079.44
2018-07-01T11:07:35.421Z,102070.08
2018-07-01T11:10:40.252Z,102067.28
2018-07-01T11:13:44.962Z,102070.29
2018-07-01T11:16:49.618Z,102069.77
2018-07-01T11:19:54.442Z,102073.33
2018-07-01T11:22:59.103Z,102064.86
2018-07-01T11:26:03.696Z,102059.91
2018-07-01T11:29:08.342Z,102066.53
2018-07-01T11:32:12.924Z,102065.66
2018-07-01T11:35:17.745Z,102063.64
2018-07-01T11:38:22.367Z,102068.48
2018-07-01T11:41:27.130Z,102059.11
2018-07-01T11:44:32.362Z,102062.56
2018-07-01T11:47:36.935Z,102062.41
2018-07-01T11:50:41.636Z,102060.87
2018-07-01T11:53:46.346Z,102058.34
2018-07-01T11:56:51.063Z,102057.94
2018-07-01T11:59:55.573Z,102055.38
2018-07-01T12:03:00.207Z,102053.47
2018-07-01T12:06:04.925Z,102054.25
2018-07-01T12:09:10.161Z,102049.81
2018-07-01T12:12:14.770Z,102051.01
2018-07-01T12:15:19.597Z,102055.36
2018-07-01T12:18:24.231Z,102053.20
2018-07-01T12:21:29.001Z,102064.02
2018-07-01T12:24:33.879Z,102058.67
2018-07-01T12:27:38.438Z,102051.73
2018-07-01T12:30:43.030Z,102049.20
2018-07-01T12:33:47.873Z,102046.17
2018-07-01T12:36:52.538Z,102046.10
2018-07-01T12:39:57.566Z,102046.09
2018-07-01T12:43:02.483Z,102038.56
2018-07-01T12:46:07.546Z,102044.70
2018-07-01T12:49:12.404Z,102044.48
2018-07-01T12:52:17.878Z,102041.09
2018-07-01T12:55:22.578Z,102036.61
2018-07-01T12:58:27.211Z,102045.80
2018-07-01T13:01:31.972Z,102029.86
2018-07-01T13:04:36.625Z,102033.09
2018-07-01T13:07:42.080Z,102030.95
2018-07-01T13:10:46.695Z,102032.73
2018-07-01T13:13:51.471Z,102024.83
2018-07-01T13:16:56.152Z,102016.42
2018-07-01T13:20:00.890Z,102017.11
2018-07-01T13:23:05.425Z,102019.66
2018-07-01T13:26:10.124Z,102014.28
2018-07-01T13:29:14.686Z,102009.84
2018-07-01T13:32:19.333Z,102001.84
2018-07-01T13:35:24.081Z,102004.42
2018-07-01T13:38:32.720Z,102001.77
2018-07-01T13:41:37.399Z,102000.86
2018-07-01T13:44:42.089Z,101998.91
2018-07-01T13:47:46.868Z,101994.41
2018-07-01T13:50:51.487Z,101996.16
2018-07-01T13:53:57.512Z,101992.57
2018-07-01T13:57:02.103Z,101998.55
2018-07-01T14:00:08.378Z,101999.52
2018-07-01T14:03:13.071Z,101992.80
2018-07-01T14:06:17.974Z,101989.16
2018-07-01T14:09:22.978Z,101995.39
2018-07-01T14:12:27.501Z,101993.38
2018-07-01T14:15:32.336Z,101988.36
2018-07-01T14:18:37.358Z,101980.80
2018-07-01T14:21:42.131Z,101987.70
2018-07-01T14:24:46.793Z,101988.91
2018-07-01T14:27:51.312Z,101988.30
2018-07-01T14:30:55.932Z,101985.60
2018-07-01T14:34:00.768Z,101981.16
2018-07-01T14:37:05.630Z,101981.77
2018-07-01T14:40:10.289Z,101990.94
2018-07-01T14:43:15.085Z,101981.55
2018-07-01T14:46:19.739Z,101983.46
2018-07-01T14:49:24.522Z,101982.24
2018-07-01T14:52:29.173Z,101980.06
2018-07-01T14:55:34.917Z,101981.97
2018-07-01T14:58:39.649Z,101978.80
2018-07-01T15:01:44.421Z,101980.44
2018-07-01T15:04:49.064Z,101974.96
2018-07-01T15:07:54.068Z,101966.64
2018-07-01T15:10:58.723Z,101958.13
2018-07-01T15:14:03.708Z,101965.23
2018-07-01T15:17:08.461Z,101953.07
2018-07-01T15:20:12.983Z,101948.67
2018-07-01T15:23:17.276Z,101952.66
2018-07-01T15:26:21.837Z,101950.80
2018-07-01T15:29:26.653Z,101946.81
2018-07-01T15:32:31.053Z,101955.27
2018-07-01T15:35:35.682Z,101947.98
2018-07-01T15:38:40.272Z,101937.91
2018-07-01T15:41:44.904Z,101941.02
2018-07-01T15:44:49.440Z,101933.45
2018-07-01T15:47:53.970Z,101933.34
2018-07-01T15:50:58.626Z,101924.70
2018-07-01T15:54:03.368Z,101929.14
2018-07-01T15:57:07.935Z,101922.16
2018-07-01T16:00:12.452Z,101927.23
2018-07-01T16:03:16.990Z,101926.77
2018-07-01T16:06:21.732Z,101924.70
2018-07-01T16:09:26.338Z,101924.86
2018-07-01T16:12:31.127Z,101921.95
2018-07-01T16:15:35.673Z,101913.43
2018-07-01T16:18:40.284Z,101916.88
2018-07-01T16:21:44.864Z,101916.27
2018-07-01T16:24:54.567Z,101915.76
2018-07-01T16:28:04.344Z,101908.66
2018-07-01T16:31:08.869Z,101903.75
2018-07-01T16:34:13.521Z,101904.47
2018-07-01T16:37:18.144Z,101904.35
2018-07-01T16:40:22.722Z,101897.31
2018-07-01T16:43:27.368Z,101897.80
2018-07-01T16:46:31.948Z,101897.37
2018-07-01T16:49:36.614Z,101894.31
2018-07-01T16:52:41.180Z,101894.62
2018-07-01T16:55:45.640Z,101899.62
2018-07-01T16:58:50.278Z,101894.42
2018-07-01T17:01:54.701Z,101888.19
2018-07-01T17:04:59.309Z,101887.92
2018-07-01T17:08:03.873Z,101881.57
2018-07-01T17:11:08.402Z,101882.09
2018-07-01T17:14:12.891Z,101877.96
2018-07-01T17:17:17.366Z,101877.32
2018-07-01T17:20:22.001Z,101874.59
2018-07-01T17:23:26.673Z,101878.28
2018-07-01T17:26:31.280Z,101870.59
2018-07-01T17:29:35.828Z,101866.80
2018-07-01T17:32:45.516Z,101868.22
2018-07-01T17:35:49.970Z,101879.41
2018-07-01T17:38:54.544Z,101873.11
2018-07-01T17:41:59.397Z,101871.61
2018-07-01T17:45:04.206Z,101884.14
2018-07-01T17:48:08.729Z,101878.27
2018-07-01T17:51:13.282Z,101874.07
2018-07-01T17:54:17.908Z,101879.81
2018-07-01T17:57:22.490Z,101878.61
2018-07-01T18:00:27.156Z,101879.06
2018-07-01T18:03:31.846Z,101874.69
2018-07-01T18:06:36.412Z,101880.58
2018-07-01T18:09:41.048Z,101874.47
2018-07-01T18:12:45.462Z,101878.43
2018-07-01T18:15:49.968Z,101877.11
2018-07-01T18:18:54.458Z,101866.60
2018-07-01T18:22:27.956Z,101865.77
2018-07-01T18:25:09.842Z,101864.94
2018-07-01T18:28:18.878Z,101870.25
2018-07-01T18:31:12.760Z,101867.67
2018-07-01T18:34:17.281Z,101863.29
2018-07-01T18:37:21.842Z,101861.19
2018-07-01T18:40:26.342Z,101862.12
2018-07-01T18:43:30.973Z,101858.22
2018-07-01T18:46:35.497Z,101856.44
2018-07-01T18:49:40.022Z,101858.22
2018-07-01T18:52:44.560Z,101863.09
2018-07-01T18:55:49.262Z,101863.20
2018-07-01T18:58:54.233Z,101861.95
2018-07-01T19:01:58.830Z,101859.31
2018-07-01T19:05:06.485Z,101865.53
2018-07-01T19:08:11.154Z,101866.05
2018-07-01T19:11:15.767Z,101867.86
2018-07-01T19:14:20.330Z,101872.31
2018-07-01T19:17:24.800Z,101867.05
2018-07-01T19:20:29.325Z,101864.41
2018-07-01T19:23:33.876Z,101878.95
2018-07-01T19:26:38.537Z,101877.61
2018-07-01T19:29:43.252Z,101879.81
2018-07-01T19:32:47.857Z,101877.64
2018-07-01T19:35:52.391Z,101883.77
2018-07-01T19:38:57.013Z,101872.78
2018-07-01T19:42:01.586Z,101875.42
2018-07-01T19:45:06.901Z,101876.29
2018-07-01T19:48:11.545Z,101877.08
2018-07-01T19:51:16.115Z,101879.67
2018-07-01T19:54:20.641Z,101878.75
2018-07-01T19:57:25.379Z,101877.37
2018-07-01T20:00:30.045Z,101874.25
2018-07-01T20:03:34.606Z,101873.30
2018-07-01T20:06:39.277Z,101875.44
2018-07-01T20:09:43.972Z,101873.20
2018-07-01T20:12:48.705Z,101880.09
2018-07-01T20:15:53.387Z,101885.30
2018-07-01T20:18:58.019Z,101884.75
2018-07-01T20:22:02.623Z,101880.73
2018-07-01T20:25:07.802Z,101886.25
2018-07-01T20:28:12.711Z,101886.60
2018-07-01T20:31:17.459Z,101885.17
2018-07-01T20:34:22.127Z,101884.24
2018-07-01T20:37:26.698Z,101890.70
2018-07-01T20:40:31.003Z,101885.42
2018-07-01T20:43:35.770Z,101893.59
2018-07-01T20:46:40.578Z,101888.69
2018-07-01T20:49:45.232Z,101885.95
2018-07-01T20:52:50.071Z,101888.09
2018-07-01T20:55:54.625Z,101888.91
2018-07-01T20:58:59.184Z,101893.28
2018-07-01T21:02:03.802Z,101897.25
2018-07-01T21:05:08.355Z,101898.50
2018-07-01T21:08:12.996Z,101902.27
2018-07-01T21:11:17.748Z,101898.56
2018-07-01T21:14:22.413Z,101900.17
2018-07-01T21:17:27.152Z,101899.34
2018-07-01T21:20:31.759Z,101900.25
2018-07-01T21:23:36.166Z,101904.62
2018-07-01T21:26:40.646Z,101902.03
2018-07-01T21:29:45.128Z,101897.73
2018-07-01T21:32:49.544Z,101898.16
2018-07-01T21:35:54.026Z,101905.05
2018-07-01T21:38:58.389Z,101907.09
2018-07-01T21:42:02.775Z,101909.16
2018-07-01T21:45:08.278Z,101911.75
2018-07-01T21:48:12.882Z,101914.41
2018-07-01T21:51:17.373Z,101905.20
2018-07-01T21:54:21.892Z,101905.99
2018-07-01T21:57:26.554Z,101912.47
2018-07-01T22:00:33.211Z,101913.70
2018-07-01T22:03:37.739Z,101905.20
2018-07-01T22:06:47.468Z,101902.81
2018-07-01T22:09:51.856Z,101900.42
2018-07-01T22:12:56.438Z,101904.27
2018-07-01T22:16:09.285Z,101902.52
2018-07-01T22:19:14.552Z,101909.55
2018-07-01T22:22:18.998Z,101908.59
2018-07-01T22:25:25.015Z,101901.47
2018-07-01T22:28:30.375Z,101903.03
2018-07-01T22:31:35.284Z,101898.88
2018-07-01T22:34:39.956Z,101900.42
2018-07-01T22:37:44.410Z,101904.16
2018-07-01T22:40:48.909Z,101907.55
2018-07-01T22:43:53.332Z,101910.01
2018-07-01T22:46:59.305Z,101913.39
2018-07-01T22:50:03.980Z,101905.25
2018-07-01T22:53:08.537Z,101915.67
2018-07-01T22:56:12.957Z,101911.69
2018-07-01T22:59:18.729Z,101909.22
2018-07-01T23:03:10.684Z,101911.41
2018-07-01T23:06:16.642Z,101906.52
2018-07-01T23:09:22.473Z,101903.73
2018-07-01T23:12:28.332Z,101902.03
2018-07-01T23:15:34.569Z,101887.70
2018-07-01T23:18:40.634Z,101887.16
2018-07-01T23:21:45.057Z,101884.55
2018-07-01T23:24:49.633Z,101881.56
2018-07-01T23:27:54.070Z,101880.70
2018-07-01T23:30:58.439Z,101882.42
2018-07-01T23:34:02.863Z,101878.50
2018-07-01T23:37:07.302Z,101877.25
2018-07-01T23:40:12.315Z,101877.10
2018-07-01T23:43:16.736Z,101873.91
2018-07-01T23:46:21.409Z,101876.98
2018-07-01T23:49:25.900Z,101873.50
2018-07-01T23:52:30.395Z,101874.80
2018-07-01T23:55:34.832Z,101862.98
2018-07-01T23:58:39.245Z,101866.35
